Time;durP1;ratioP1;P1;durP2;ratioP2;P2;SDS_P1;SDS_P2;PMS_P1;PMS_P2;Temp;Humidity;BMP_temperature;BMP_pressure;BME280_temperature;BME280_humidity;BME280_pressure;Samples;Min_cycle;Max_cycle;Signal;HPM_P1;HPM_P2
2023/04/12 00:01:35;;;;;;;6.07;1.30;;;12.90;63.40;;;;;;5006451;28;20038;-66
2023/04/12 00:04:04;;;;;;;4.07;0.88;;;13.00;63.40;;;;;;5012584;28;20018;-66
2023/04/12 00:06:33;;;;;;;2.30;1.20;;;13.00;63.40;;;;;;4991622;28;20542;-65
2023/04/12 00:09:00;;;;;;;5.93;0.60;;;12.90;63.60;;;;;;5007607;28;20106;-66
2023/04/12 00:11:27;;;;;;;1.55;0.50;;;12.90;64.30;;;;;;5008223;28;20112;-66
2023/04/12 00:13:54;;;;;;;1.23;0.50;;;12.90;64.30;;;;;;5010864;28;20022;-66
2023/04/12 00:16:19;;;;;;;0.88;0.70;;;12.90;64.50;;;;;;5008499;28;20038;-67
2023/04/12 00:18:45;;;;;;;0.93;0.57;;;12.80;64.60;;;;;;5012047;28;20030;-66
2023/04/12 00:21:12;;;;;;;6.13;1.38;;;12.80;65.50;;;;;;4991947;28;20037;-65
2023/04/12 00:23:38;;;;;;;1.75;0.57;;;12.70;66.00;;;;;;5009842;28;20076;-67
2023/04/12 00:26:04;;;;;;;0.73;0.52;;;12.60;66.30;;;;;;5006263;28;20053;-67
2023/04/12 00:28:30;;;;;;;0.63;0.63;;;12.60;66.70;;;;;;5006782;28;20025;-67
2023/04/12 00:30:56;;;;;;;1.40;0.68;;;12.50;67.00;;;;;;5007146;28;20468;-67
2023/04/12 00:33:21;;;;;;;6.55;0.80;;;12.50;67.40;;;;;;5010836;28;20033;-67
2023/04/12 00:35:47;;;;;;;1.45;0.60;;;12.50;67.70;;;;;;5004848;28;20038;-67
2023/04/12 00:38:14;;;;;;;3.08;0.93;;;12.40;68.00;;;;;;4992292;28;20085;-67
2023/04/12 00:40:41;;;;;;;1.15;0.63;;;12.50;68.00;;;;;;4994740;28;20093;-67
2023/04/12 00:43:07;;;;;;;2.30;0.70;;;12.50;67.90;;;;;;5002618;28;20030;-67
2023/04/12 00:45:34;;;;;;;0.85;0.47;;;12.50;68.10;;;;;;5009967;28;20021;-67
2023/04/12 00:48:00;;;;;;;1.27;0.82;;;12.40;68.20;;;;;;5004532;28;20057;-67
2023/04/12 00:50:26;;;;;;;1.33;0.60;;;12.40;68.60;;;;;;4990615;28;20481;-67
2023/04/12 00:52:54;;;;;;;1.20;0.50;;;12.30;69.10;;;;;;5009317;28;20025;-67
2023/04/12 00:55:20;;;;;;;1.27;0.90;;;12.30;69.40;;;;;;5010709;28;20451;-68
2023/04/12 00:57:45;;;;;;;1.17;0.82;;;12.20;69.70;;;;;;5010062;28;20061;-68
2023/04/12 01:00:11;;;;;;;0.75;0.55;;;12.10;70.10;;;;;;4992923;28;20105;-67
2023/04/12 01:02:45;;;;;;;1.58;0.60;;;12.10;70.50;;;;;;5008451;28;20156;-68
2023/04/12 01:05:13;;;;;;;2.05;0.70;;;12.00;70.80;;;;;;5009871;28;20053;-67
2023/04/12 01:07:43;;;;;;;2.03;1.23;;;12.00;71.40;;;;;;4986098;28;20440;-67
2023/04/12 01:10:35;;;;;;;3.20;0.60;;;11.90;71.70;;;;;;5008465;28;20056;-65
2023/04/12 01:13:28;;;;;;;1.00;0.70;;;11.90;71.70;;;;;;5009450;28;20033;-66
2023/04/12 01:16:05;;;;;;;1.85;0.80;;;12.00;71.80;;;;;;5003766;28;20821;-67
2023/04/12 01:18:40;;;;;;;4.97;0.60;;;12.00;72.30;;;;;;4994283;28;20029;-66
2023/04/12 01:21:09;;;;;;;2.38;0.47;;;12.00;72.20;;;;;;5009637;28;20501;-66
2023/04/12 01:23:56;;;;;;;1.38;0.90;;;12.00;72.40;;;;;;5008761;28;20496;-66
2023/04/12 01:26:34;;;;;;;1.38;0.60;;;11.90;72.40;;;;;;5005476;28;20076;-67
2023/04/12 01:29:03;;;;;;;2.75;0.40;;;11.90;72.70;;;;;;5009932;28;20064;-67
2023/04/12 01:31:30;;;;;;;0.55;0.35;;;11.80;73.10;;;;;;5009403;28;20065;-67
2023/04/12 01:33:58;;;;;;;0.50;0.50;;;11.80;73.10;;;;;;4988715;28;20500;-67
2023/04/12 01:36:26;;;;;;;0.47;0.30;;;11.80;73.30;;;;;;5008218;28;20029;-68
2023/04/12 01:38:53;;;;;;;1.38;0.60;;;11.70;73.80;;;;;;5010436;28;20021;-67
2023/04/12 01:41:19;;;;;;;0.70;0.60;;;11.60;73.80;;;;;;5005764;28;20025;-68
2023/04/12 01:43:46;;;;;;;0.55;0.55;;;11.60;73.90;;;;;;5007883;28;20041;-67
2023/04/12 01:46:19;;;;;;;1.95;0.50;;;11.60;74.30;;;;;;5006955;28;20030;-67
2023/04/12 01:48:49;;;;;;;0.60;0.52;;;11.60;74.10;;;;;;4986609;28;20088;-68
2023/04/12 01:51:35;;;;;;;1.92;0.50;;;11.60;74.00;;;;;;5005745;28;20029;-67
2023/04/12 01:54:10;;;;;;;0.80;0.52;;;11.70;73.90;;;;;;5008057;28;20109;-67
2023/04/12 01:56:42;;;;;;;0.35;0.35;;;11.70;73.90;;;;;;5006897;28;20040;-66
2023/04/12 01:59:09;;;;;;;2.75;0.75;;;11.60;74.00;;;;;;5008205;28;20036;-66
2023/04/12 02:01:35;;;;;;;0.82;0.70;;;11.60;74.60;;;;;;5005378;28;20077;-66
2023/04/12 02:04:03;;;;;;;2.72;0.55;;;11.50;75.00;;;;;;5009392;28;20034;-66
2023/04/12 02:06:30;;;;;;;0.88;0.80;;;11.50;75.10;;;;;;5008137;28;20112;-66
2023/04/12 02:09:01;;;;;;;1.13;0.52;;;11.40;75.60;;;;;;4985348;28;20041;-66
2023/04/12 02:11:27;;;;;;;0.47;0.47;;;11.40;76.10;;;;;;5007833;28;20041;-66
2023/04/12 02:13:53;;;;;;;0.70;0.68;;;11.40;75.40;;;;;;5008741;28;20034;-66
2023/04/12 02:16:19;;;;;;;1.35;0.80;;;11.40;75.80;;;;;;5005715;28;20439;-67
2023/04/12 02:18:46;;;;;;;1.92;0.70;;;11.40;75.80;;;;;;4973617;28;20037;-67
2023/04/12 02:21:12;;;;;;;2.70;0.80;;;11.40;75.80;;;;;;5007961;28;20022;-67
2023/04/12 02:23:37;;;;;;;0.77;0.52;;;11.40;75.70;;;;;;4991403;28;20374;-67
2023/04/12 02:26:03;;;;;;;0.90;0.70;;;11.40;75.80;;;;;;5009101;28;20061;-67
2023/04/12 02:28:29;;;;;;;1.75;0.63;;;11.40;75.70;;;;;;5008301;28;20030;-67
2023/04/12 02:30:55;;;;;;;0.50;0.50;;;11.40;75.90;;;;;;5005207;28;20061;-67
2023/04/12 02:33:24;;;;;;;0.93;0.70;;;11.40;76.00;;;;;;4993462;28;20057;-68
2023/04/12 02:35:50;;;;;;;0.98;0.63;;;11.40;76.00;;;;;;5006250;28;20041;-68
2023/04/12 02:38:16;;;;;;;1.67;0.90;;;11.40;76.20;;;;;;5007014;28;20034;-68
2023/04/12 02:40:42;;;;;;;2.10;0.55;;;11.30;76.10;;;;;;5005185;28;20282;-68
2023/04/12 02:43:08;;;;;;;0.65;0.60;;;11.30;76.20;;;;;;4994170;28;20064;-65
2023/04/12 02:45:34;;;;;;;2.80;0.65;;;11.30;76.20;;;;;;5008339;28;20448;-68
2023/04/12 02:48:00;;;;;;;2.20;1.05;;;11.30;76.40;;;;;;5007603;28;20136;-68
2023/04/12 02:50:26;;;;;;;1.60;1.08;;;11.20;76.30;;;;;;4991067;28;20121;-68
2023/04/12 02:52:51;;;;;;;0.38;0.38;;;11.20;76.30;;;;;;5008048;28;20974;-68
2023/04/12 02:55:17;;;;;;;2.67;0.80;;;11.20;76.40;;;;;;5007969;28;20034;-67
2023/04/12 02:57:47;;;;;;;0.60;0.57;;;11.20;76.50;;;;;;5006156;28;20026;-67
2023/04/12 03:00:16;;;;;;;0.43;0.43;;;11.20;76.50;;;;;;4975028;28;20385;-68
2023/04/12 03:02:43;;;;;;;1.95;0.50;;;11.10;76.60;;;;;;5004279;28;20025;-68
2023/04/12 03:05:09;;;;;;;0.50;0.30;;;11.10;76.50;;;;;;4993868;28;20037;-72
2023/04/12 03:07:35;;;;;;;0.60;0.60;;;11.20;76.60;;;;;;4996759;28;20473;-67
2023/04/12 03:10:03;;;;;;;0.95;0.88;;;11.20;76.60;;;;;;5004171;28;20101;-67
2023/04/12 03:12:29;;;;;;;0.93;0.55;;;11.20;76.60;;;;;;5008013;28;20045;-66
2023/04/12 03:14:55;;;;;;;1.13;0.60;;;11.20;76.70;;;;;;4979595;28;20060;-66
2023/04/12 03:17:20;;;;;;;0.70;0.50;;;11.20;76.60;;;;;;4992398;28;20440;-67
2023/04/12 03:19:48;;;;;;;0.68;0.63;;;11.20;76.60;;;;;;5007474;28;20476;-67
2023/04/12 03:22:13;;;;;;;1.60;0.80;;;11.10;76.50;;;;;;5007646;28;20534;-66
2023/04/12 03:24:41;;;;;;;0.50;0.50;;;11.10;76.50;;;;;;5008454;28;20394;-67
2023/04/12 03:27:07;;;;;;;1.48;0.65;;;11.20;76.50;;;;;;4996522;28;20041;-67
2023/04/12 03:29:33;;;;;;;2.78;0.50;;;11.10;76.50;;;;;;5009797;28;20038;-66
2023/04/12 03:31:59;;;;;;;2.25;0.40;;;11.20;76.40;;;;;;5011246;28;20105;-66
2023/04/12 03:34:31;;;;;;;0.60;0.30;;;11.20;76.30;;;;;;4991266;28;21479;-67
2023/04/12 03:37:01;;;;;;;0.40;0.40;;;11.20;76.20;;;;;;5010360;28;20026;-67
2023/04/12 03:39:28;;;;;;;3.92;0.77;;;11.20;76.20;;;;;;4977581;28;20400;-66
2023/04/12 03:41:53;;;;;;;0.30;0.30;;;11.20;76.20;;;;;;5009136;28;20058;-66
2023/04/12 03:44:20;;;;;;;0.45;0.43;;;11.20;76.30;;;;;;5009168;28;20038;-68
2023/04/12 03:46:47;;;;;;;1.15;0.80;;;11.20;76.50;;;;;;5011091;28;20038;-66
2023/04/12 03:49:13;;;;;;;3.47;0.60;;;11.20;76.60;;;;;;4994233;28;20049;-66
2023/04/12 03:51:42;;;;;;;1.48;0.73;;;11.10;76.60;;;;;;5010779;28;20346;-68
2023/04/12 03:54:11;;;;;;;2.63;1.17;;;11.10;76.80;;;;;;5007438;28;20067;-67
2023/04/12 03:56:38;;;;;;;1.40;0.65;;;11.10;76.70;;;;;;5006283;28;20103;-67
2023/04/12 03:59:07;;;;;;;7.43;1.10;;;11.10;77.10;;;;;;5011831;28;20064;-67
2023/04/12 04:01:36;;;;;;;2.78;0.60;;;11.00;77.10;;;;;;4992337;28;20045;-66
2023/04/12 04:04:03;;;;;;;1.67;0.55;;;11.00;77.20;;;;;;5011476;28;20076;-67
2023/04/12 04:06:28;;;;;;;2.08;0.65;;;11.00;77.20;;;;;;5008816;28;20034;-67
2023/04/12 04:08:56;;;;;;;0.55;0.40;;;11.00;77.10;;;;;;5011055;28;20036;-67
2023/04/12 04:11:22;;;;;;;1.55;0.70;;;11.10;77.30;;;;;;5010059;28;20032;-68
2023/04/12 04:13:48;;;;;;;0.40;0.40;;;11.10;77.30;;;;;;5005603;28;20029;-67
2023/04/12 04:16:14;;;;;;;0.90;0.40;;;11.10;77.20;;;;;;5010790;28;20026;-68
2023/04/12 04:18:39;;;;;;;0.50;0.50;;;11.10;77.20;;;;;;5003291;28;20038;-68
2023/04/12 04:21:06;;;;;;;0.30;0.30;;;11.10;77.20;;;;;;5008415;28;20393;-67
2023/04/12 04:23:38;;;;;;;0.63;0.55;;;11.00;77.20;;;;;;4992522;28;20041;-67
2023/04/12 04:26:10;;;;;;;1.33;0.40;;;11.00;77.30;;;;;;5006612;28;20037;-68
2023/04/12 04:28:49;;;;;;;0.75;0.63;;;11.00;77.30;;;;;;5002051;28;20026;-67
2023/04/12 04:31:16;;;;;;;0.50;0.50;;;11.00;77.50;;;;;;5007497;28;20058;-68
2023/04/12 04:33:41;;;;;;;0.68;0.43;;;10.90;78.30;;;;;;4992153;28;20033;-67
2023/04/12 04:36:08;;;;;;;6.05;1.05;;;10.90;78.10;;;;;;4991950;28;20032;-68
2023/04/12 04:38:34;;;;;;;0.55;0.43;;;10.90;78.10;;;;;;5009715;28;20123;-66
2023/04/12 04:41:04;;;;;;;1.05;0.45;;;10.90;78.00;;;;;;5010507;28;20034;-66
2023/04/12 04:43:30;;;;;;;0.40;0.28;;;10.90;78.10;;;;;;5008553;28;20041;-66
2023/04/12 04:45:56;;;;;;;1.95;0.80;;;10.90;78.10;;;;;;5005622;28;20041;-68
2023/04/12 04:48:23;;;;;;;1.77;1.25;;;10.90;78.20;;;;;;5010528;28;20101;-67
2023/04/12 04:50:52;;;;;;;1.15;0.55;;;10.80;78.30;;;;;;5006372;28;20381;-68
2023/04/12 04:53:20;;;;;;;0.43;0.43;;;10.80;78.60;;;;;;5009036;28;20034;-67
2023/04/12 04:55:46;;;;;;;2.20;0.80;;;10.80;78.70;;;;;;5009588;28;20034;-67
2023/04/12 04:58:12;;;;;;;0.45;0.28;;;10.80;78.70;;;;;;5006202;28;20031;-67
2023/04/12 05:00:38;;;;;;;0.95;0.80;;;10.80;78.80;;;;;;5009687;28;20084;-67
2023/04/12 05:03:04;;;;;;;1.55;0.80;;;10.80;78.80;;;;;;5001427;28;20397;-67
2023/04/12 05:05:30;;;;;;;0.32;0.32;;;10.70;78.90;;;;;;5007057;28;20029;-66
2023/04/12 05:07:56;;;;;;;1.48;0.50;;;10.70;78.90;;;;;;5001783;28;20497;-66
2023/04/12 05:10:22;;;;;;;1.02;0.82;;;10.80;78.90;;;;;;5009249;28;20126;-66
2023/04/12 05:12:48;;;;;;;0.57;0.43;;;10.80;79.10;;;;;;5009030;28;20105;-65
2023/04/12 05:15:14;;;;;;;0.93;0.70;;;10.80;79.10;;;;;;5010120;28;20030;-66
2023/04/12 05:17:39;;;;;;;0.70;0.32;;;10.70;79.20;;;;;;5008435;28;20029;-67
2023/04/12 05:20:06;;;;;;;0.90;0.75;;;10.70;79.20;;;;;;5007473;28;20022;-68
2023/04/12 05:22:32;;;;;;;0.70;0.50;;;10.80;79.20;;;;;;4992709;28;20092;-68
2023/04/12 05:24:58;;;;;;;0.30;0.30;;;10.70;79.10;;;;;;5007366;28;20034;-67
2023/04/12 05:27:26;;;;;;;1.17;0.75;;;10.80;79.10;;;;;;4991932;28;20084;-68
2023/04/12 05:29:52;;;;;;;1.70;0.60;;;10.80;79.20;;;;;;5007000;28;20030;-67
2023/04/12 05:32:18;;;;;;;1.00;0.60;;;10.80;79.30;;;;;;4991572;28;20069;-68
2023/04/12 05:34:44;;;;;;;1.85;0.88;;;10.80;79.40;;;;;;5004586;28;20080;-67
2023/04/12 05:37:10;;;;;;;1.33;0.70;;;10.80;79.70;;;;;;5008887;28;20069;-68
2023/04/12 05:39:36;;;;;;;1.98;0.77;;;10.70;79.90;;;;;;5008699;28;20405;-67
2023/04/12 05:42:01;;;;;;;0.80;0.80;;;10.70;80.20;;;;;;5009261;28;20025;-68
2023/04/12 05:44:27;;;;;;;0.50;0.50;;;10.70;80.30;;;;;;4990947;28;20876;-67
2023/04/12 05:46:53;;;;;;;0.65;0.60;;;10.60;80.50;;;;;;5009477;28;20049;-67
2023/04/12 05:49:18;;;;;;;0.47;0.38;;;10.60;80.40;;;;;;5008569;28;20026;-67
2023/04/12 05:51:44;;;;;;;1.10;0.70;;;10.70;80.40;;;;;;5006604;28;20032;-67
2023/04/12 05:54:10;;;;;;;0.85;0.73;;;10.70;80.50;;;;;;5007098;28;20496;-67
2023/04/12 05:56:36;;;;;;;1.55;0.68;;;10.70;80.50;;;;;;5005808;28;20068;-66
2023/04/12 05:59:03;;;;;;;0.55;0.55;;;10.70;80.40;;;;;;4990271;28;20124;-65
2023/04/12 06:01:31;;;;;;;0.82;0.75;;;10.80;80.40;;;;;;5009095;28;20484;-66
2023/04/12 06:03:57;;;;;;;2.05;0.82;;;10.80;80.20;;;;;;4974866;28;20034;-66
2023/04/12 06:06:23;;;;;;;0.60;0.60;;;10.80;80.20;;;;;;5006240;28;20026;-66
2023/04/12 06:08:49;;;;;;;3.80;0.90;;;10.80;80.30;;;;;;5002860;28;20088;-66
2023/04/12 06:11:15;;;;;;;0.57;0.57;;;10.80;80.60;;;;;;4994497;28;20044;-66
2023/04/12 06:13:41;;;;;;;0.80;0.60;;;10.70;80.50;;;;;;4990355;28;20026;-66
2023/04/12 06:16:07;;;;;;;1.15;0.80;;;10.80;80.50;;;;;;4984035;28;20532;-66
2023/04/12 06:18:33;;;;;;;0.40;0.40;;;10.80;80.40;;;;;;5005853;28;20037;-66
2023/04/12 06:20:59;;;;;;;0.60;0.52;;;10.80;80.50;;;;;;5007217;28;20030;-66
2023/04/12 06:23:25;;;;;;;0.70;0.70;;;10.80;80.50;;;;;;5003694;28;20033;-66
2023/04/12 06:25:52;;;;;;;0.50;0.50;;;10.70;80.70;;;;;;5004498;28;20030;-66
2023/04/12 06:28:18;;;;;;;4.03;0.70;;;10.70;80.90;;;;;;5003594;28;20120;-66
2023/04/12 06:30:43;;;;;;;0.60;0.40;;;10.70;81.00;;;;;;5008114;28;20449;-66
2023/04/12 06:33:10;;;;;;;0.50;0.50;;;10.70;80.90;;;;;;5004613;28;20026;-66
2023/04/12 06:35:35;;;;;;;0.85;0.68;;;10.70;80.80;;;;;;5007234;28;20366;-66
2023/04/12 06:38:01;;;;;;;2.13;0.77;;;10.80;80.80;;;;;;5006452;28;20037;-65
2023/04/12 06:40:27;;;;;;;0.57;0.57;;;10.80;80.80;;;;;;5007361;28;20034;-65
2023/04/12 06:42:52;;;;;;;1.88;0.47;;;10.80;81.00;;;;;;5009039;28;20396;-66
2023/04/12 06:45:18;;;;;;;0.30;0.30;;;10.70;81.10;;;;;;5008021;28;20037;-65
2023/04/12 06:47:44;;;;;;;2.13;0.68;;;10.70;81.30;;;;;;5007767;28;20041;-66
2023/04/12 06:50:10;;;;;;;0.82;0.60;;;10.70;81.30;;;;;;5008427;28;20060;-65
2023/04/12 06:52:35;;;;;;;0.70;0.60;;;10.80;81.40;;;;;;5009057;28;20022;-65
2023/04/12 06:55:01;;;;;;;0.75;0.60;;;10.80;81.20;;;;;;5006783;28;20034;-66
2023/04/12 06:57:27;;;;;;;1.15;0.68;;;10.80;81.20;;;;;;4983949;28;20412;-65
2023/04/12 06:59:52;;;;;;;3.65;0.52;;;10.80;81.20;;;;;;5009207;28;20037;-66
2023/04/12 07:02:18;;;;;;;1.13;0.50;;;10.80;81.20;;;;;;4995659;28;20105;-66
2023/04/12 07:04:44;;;;;;;0.43;0.28;;;10.80;81.10;;;;;;5011227;28;20033;-66
2023/04/12 07:07:10;;;;;;;0.50;0.50;;;10.80;81.10;;;;;;5009100;28;20030;-67
2023/04/12 07:09:35;;;;;;;0.25;0.25;;;10.80;81.10;;;;;;5010504;28;20044;-65
2023/04/12 07:12:01;;;;;;;1.33;0.70;;;10.90;81.10;;;;;;4977675;28;20034;-65
2023/04/12 07:14:27;;;;;;;0.40;0.40;;;10.90;81.10;;;;;;5010171;28;20041;-65
2023/04/12 07:16:53;;;;;;;0.85;0.52;;;10.80;81.20;;;;;;5010318;28;20026;-66
2023/04/12 07:19:19;;;;;;;0.32;0.32;;;10.80;81.50;;;;;;5013293;28;20105;-66
2023/04/12 07:21:44;;;;;;;0.50;0.40;;;10.90;81.50;;;;;;5012332;28;20469;-70
2023/04/12 07:24:10;;;;;;;0.95;0.43;;;10.90;81.30;;;;;;5010198;28;20062;-66
2023/04/12 07:26:36;;;;;;;0.30;0.30;;;11.00;81.00;;;;;;5010415;28;20029;-66
2023/04/12 07:29:02;;;;;;;0.25;0.20;;;11.10;81.00;;;;;;4993448;28;20121;-67
2023/04/12 07:31:31;;;;;;;0.68;0.30;;;11.10;80.70;;;;;;5010412;28;20046;-68
2023/04/12 07:33:56;;;;;;;1.08;0.57;;;11.20;80.60;;;;;;5010325;28;20065;-68
2023/04/12 07:36:22;;;;;;;0.47;0.47;;;11.20;80.50;;;;;;5006796;28;20136;-67
2023/04/12 07:38:50;;;;;;;0.60;0.60;;;11.20;80.50;;;;;;5006086;28;20030;-67
2023/04/12 07:41:17;;;;;;;0.50;0.50;;;11.20;80.60;;;;;;5008494;28;20041;-68
2023/04/12 07:43:42;;;;;;;0.65;0.55;;;11.20;80.60;;;;;;5002063;28;20045;-69
2023/04/12 07:46:08;;;;;;;0.82;0.57;;;11.20;80.60;;;;;;5010942;28;20026;-68
2023/04/12 07:48:34;;;;;;;0.25;0.25;;;11.30;80.60;;;;;;4993821;28;20041;-66
2023/04/12 07:51:00;;;;;;;2.35;0.40;;;11.20;80.60;;;;;;5003236;28;20133;-66
2023/04/12 07:53:27;;;;;;;1.20;0.80;;;11.20;80.70;;;;;;5005921;28;20037;-66
2023/04/12 07:55:54;;;;;;;1.23;0.70;;;11.20;80.60;;;;;;5008982;28;20393;-67
2023/04/12 07:58:21;;;;;;;0.38;0.38;;;11.30;80.90;;;;;;5007310;28;20025;-68
2023/04/12 08:00:47;;;;;;;1.05;0.30;;;11.30;81.00;;;;;;5005752;28;20424;-67
2023/04/12 08:03:15;;;;;;;0.80;0.57;;;11.30;80.80;;;;;;5005898;28;20105;-67
2023/04/12 08:05:41;;;;;;;0.50;0.50;;;11.30;80.70;;;;;;5010133;28;20026;-67
2023/04/12 08:08:10;;;;;;;0.90;0.60;;;11.40;80.70;;;;;;5012218;28;20028;-66
2023/04/12 08:10:37;;;;;;;1.85;1.20;;;11.40;80.80;;;;;;5010805;28;20061;-69
2023/04/12 08:13:05;;;;;;;2.17;0.77;;;11.50;81.00;;;;;;4994755;28;20555;-67
2023/04/12 08:15:30;;;;;;;1.55;0.68;;;11.40;81.10;;;;;;5010207;28;20018;-66
2023/04/12 08:17:56;;;;;;;3.80;0.70;;;11.50;81.10;;;;;;5011975;28;20040;-66
2023/04/12 08:20:22;;;;;;;1.25;0.88;;;11.40;81.20;;;;;;5006020;28;20026;-67
2023/04/12 08:22:48;;;;;;;1.58;0.82;;;11.50;81.50;;;;;;5004792;28;20370;-67
2023/04/12 08:25:14;;;;;;;0.60;0.60;;;11.50;81.50;;;;;;5004324;28;20065;-66
2023/04/12 08:27:44;;;;;;;2.13;0.80;;;11.50;81.80;;;;;;5004962;28;20060;-67
2023/04/12 08:30:11;;;;;;;1.40;0.98;;;11.50;81.70;;;;;;5002477;28;20033;-66
2023/04/12 08:32:37;;;;;;;0.82;0.55;;;11.50;81.60;;;;;;5010052;28;20366;-67
2023/04/12 08:35:03;;;;;;;2.28;0.85;;;11.60;81.40;;;;;;4997048;28;20037;-66
2023/04/12 08:37:29;;;;;;;0.63;0.47;;;11.60;81.40;;;;;;5011036;28;20040;-67
2023/04/12 08:39:55;;;;;;;1.85;0.80;;;11.70;81.30;;;;;;5009389;28;20548;-67
2023/04/12 08:42:21;;;;;;;0.52;0.52;;;11.70;81.20;;;;;;4987098;28;20041;-66
2023/04/12 08:44:49;;;;;;;0.82;0.52;;;11.90;80.80;;;;;;5010265;28;20435;-67
2023/04/12 08:47:16;;;;;;;0.60;0.50;;;11.90;80.60;;;;;;5009570;28;20188;-66
2023/04/12 08:49:42;;;;;;;1.13;0.60;;;12.00;80.60;;;;;;4987889;28;20068;-66
2023/04/12 08:52:09;;;;;;;0.65;0.60;;;12.00;80.50;;;;;;5001809;28;20037;-69
2023/04/12 08:54:35;;;;;;;1.92;0.63;;;12.00;80.40;;;;;;5000780;28;20374;-68
2023/04/12 08:57:05;;;;;;;1.08;0.63;;;12.10;80.30;;;;;;5003103;28;20037;-65
2023/04/12 08:59:34;;;;;;;1.85;0.75;;;12.10;80.00;;;;;;4992656;28;20045;-67
2023/04/12 09:02:00;;;;;;;2.63;0.77;;;12.10;80.00;;;;;;4986660;28;20026;-67
2023/04/12 09:04:25;;;;;;;2.63;0.95;;;12.20;79.90;;;;;;4990478;28;20045;-67
2023/04/12 09:06:52;;;;;;;1.48;0.70;;;12.20;79.80;;;;;;4986795;28;20018;-68
2023/04/12 09:09:18;;;;;;;1.73;0.52;;;12.30;79.70;;;;;;5004888;28;20040;-67
2023/04/12 09:11:43;;;;;;;0.57;0.52;;;12.30;79.50;;;;;;4986512;28;20033;-67
2023/04/12 09:14:23;;;;;;;2.63;1.25;;;12.30;79.40;;;;;;5009598;28;20030;-67
2023/04/12 09:16:49;;;;;;;1.13;0.47;;;12.40;79.20;;;;;;5007285;28;20108;-67
2023/04/12 09:19:15;;;;;;;0.82;0.50;;;12.40;79.00;;;;;;5002821;28;20030;-66
2023/04/12 09:21:55;;;;;;;5.65;1.60;;;12.50;78.80;;;;;;4985604;28;20563;-67
2023/04/12 09:24:23;;;;;;;1.15;0.40;;;12.50;78.60;;;;;;5007816;28;20072;-67
2023/04/12 09:27:09;;;;;;;0.93;0.65;;;12.60;78.50;;;;;;5003259;28;20072;-66
2023/04/12 09:29:36;;;;;;;2.33;0.90;;;12.70;78.40;;;;;;5005806;28;20153;-67
2023/04/12 09:32:06;;;;;;;6.32;1.52;;;12.80;78.10;;;;;;5000545;28;20030;-67
2023/04/12 09:34:34;;;;;;;7.53;1.23;;;13.00;77.70;;;;;;5005186;28;20037;-66
2023/04/12 09:37:12;;;;;;;6.80;1.38;;;13.10;77.50;;;;;;4992254;28;20033;-66
2023/04/12 09:39:38;;;;;;;0.85;0.52;;;13.20;77.30;;;;;;5009205;28;20358;-66
2023/04/12 09:42:13;;;;;;;2.95;1.00;;;13.30;77.00;;;;;;5008472;28;20029;-66
2023/04/12 09:44:39;;;;;;;7.43;1.73;;;13.40;76.80;;;;;;5007324;28;20022;-66
2023/04/12 09:47:05;;;;;;;2.03;1.30;;;13.40;76.10;;;;;;5006547;28;20100;-66
2023/04/12 09:49:42;;;;;;;3.47;1.10;;;13.40;75.80;;;;;;4999961;28;20409;-67
2023/04/12 09:52:10;;;;;;;2.15;1.20;;;13.40;75.90;;;;;;5007650;28;20028;-68
2023/04/12 09:54:44;;;;;;;2.00;1.10;;;13.50;75.80;;;;;;5009123;28;20113;-67
2023/04/12 09:57:11;;;;;;;1.63;0.90;;;13.60;76.00;;;;;;4998200;28;20069;-67
2023/04/12 09:59:41;;;;;;;3.38;0.82;;;13.70;75.40;;;;;;4998367;28;20480;-67
2023/04/12 10:02:17;;;;;;;2.92;1.55;;;13.90;75.10;;;;;;4989305;28;20026;-68
2023/04/12 10:04:44;;;;;;;5.03;1.40;;;14.00;74.60;;;;;;4991451;28;20026;-68
2023/04/12 10:07:11;;;;;;;2.85;1.20;;;13.90;74.30;;;;;;4975481;28;20021;-68
2023/04/12 10:09:38;;;;;;;2.95;1.00;;;14.00;74.30;;;;;;5009715;28;20033;-68
2023/04/12 10:12:04;;;;;;;6.15;1.55;;;14.00;73.90;;;;;;5006003;28;20061;-68
2023/04/12 10:14:30;;;;;;;7.00;1.55;;;14.10;73.50;;;;;;5008458;28;20041;-68
2023/04/12 10:16:58;;;;;;;8.38;1.17;;;14.20;73.40;;;;;;5010598;28;20026;-68
2023/04/12 10:19:29;;;;;;;2.58;1.10;;;14.10;72.70;;;;;;5001336;28;20045;-67
2023/04/12 10:21:56;;;;;;;3.15;1.25;;;13.90;72.90;;;;;;5006929;28;20024;-68
2023/04/12 10:24:23;;;;;;;3.95;1.45;;;14.00;73.00;;;;;;4997275;28;20140;-68
2023/04/12 10:26:50;;;;;;;3.90;1.33;;;14.00;72.90;;;;;;4985031;28;20571;-68
2023/04/12 10:29:26;;;;;;;4.13;1.02;;;14.00;72.60;;;;;;4992732;28;20022;-67
2023/04/12 10:31:54;;;;;;;1.63;0.85;;;14.10;72.70;;;;;;4986650;28;20026;-68
2023/04/12 10:34:27;;;;;;;10.27;1.38;;;14.10;72.40;;;;;;5002308;28;20389;-67
2023/04/12 10:36:56;;;;;;;10.55;1.88;;;14.30;71.90;;;;;;5006445;28;20433;-67
2023/04/12 10:39:50;;;;;;;9.07;1.48;;;14.40;70.00;;;;;;4983019;28;20313;-67
2023/04/12 10:42:28;;;;;;;1.83;1.35;;;14.40;70.10;;;;;;5006057;28;20034;-68
2023/04/12 10:45:22;;;;;;;6.15;1.02;;;14.40;70.10;;;;;;5003706;28;20028;-67
2023/04/12 10:47:48;;;;;;;2.72;1.08;;;14.40;68.50;;;;;;5007259;28;20121;-67
2023/04/12 10:50:28;;;;;;;5.22;1.80;;;14.40;69.10;;;;;;4996594;28;20140;-66
2023/04/12 10:53:12;;;;;;;5.78;1.77;;;14.50;68.90;;;;;;4988207;28;20018;-68
2023/04/12 10:55:40;;;;;;;4.93;1.58;;;14.40;68.50;;;;;;5003075;28;20034;-67
2023/04/12 10:58:05;;;;;;;2.63;1.13;;;14.30;68.80;;;;;;4998833;28;20113;-67
2023/04/12 11:00:54;;;;;;;4.63;1.55;;;14.20;68.90;;;;;;4949757;28;20176;-68
2023/04/12 11:03:20;;;;;;;1.40;1.02;;;14.10;69.20;;;;;;4991623;28;20054;-67
2023/04/12 11:06:04;;;;;;;5.13;0.90;;;14.00;69.60;;;;;;5002012;28;20035;-68
2023/04/12 11:08:31;;;;;;;2.08;1.13;;;13.90;69.90;;;;;;4987542;28;20125;-68
2023/04/12 11:11:02;;;;;;;3.88;1.33;;;13.90;70.00;;;;;;5001132;28;20061;-68
2023/04/12 11:13:33;;;;;;;9.90;1.42;;;13.80;70.30;;;;;;5001902;28;20061;-67
2023/04/12 11:16:02;;;;;;;4.10;1.25;;;13.70;70.50;;;;;;5001442;28;20034;-68
2023/04/12 11:18:27;;;;;;;2.97;1.17;;;13.70;70.80;;;;;;5002580;28;20105;-68
2023/04/12 11:20:53;;;;;;;5.55;1.83;;;13.70;71.20;;;;;;5007131;28;20026;-68
2023/04/12 11:23:20;;;;;;;1.88;1.40;;;13.60;71.40;;;;;;4992598;28;20026;-68
2023/04/12 11:25:52;;;;;;;1.63;1.08;;;13.60;71.50;;;;;;5007595;28;20022;-67
2023/04/12 11:28:18;;;;;;;1.45;0.98;;;13.70;71.30;;;;;;5008997;28;20029;-68
2023/04/12 11:30:57;;;;;;;3.90;1.38;;;13.70;71.40;;;;;;5005546;28;20037;-67
2023/04/12 11:33:37;;;;;;;1.48;1.08;;;13.80;70.90;;;;;;5008610;28;20055;-68
2023/04/12 11:36:08;;;;;;;1.60;0.95;;;13.90;70.90;;;;;;5005564;28;20056;-67
2023/04/12 11:38:36;;;;;;;5.20;1.33;;;14.00;70.40;;;;;;5008042;28;20038;-68
2023/04/12 11:41:04;;;;;;;2.63;1.13;;;14.00;70.00;;;;;;5007939;28;20380;-68
2023/04/12 11:43:30;;;;;;;3.35;1.10;;;14.00;69.80;;;;;;5008042;28;20057;-69
2023/04/12 11:45:57;;;;;;;2.67;0.73;;;14.00;69.90;;;;;;5004221;28;20096;-68
2023/04/12 11:48:24;;;;;;;6.85;1.40;;;14.10;70.00;;;;;;5011537;28;20098;-68
2023/04/12 11:50:50;;;;;;;12.07;1.42;;;14.20;69.30;;;;;;5010496;28;20493;-66
2023/04/12 11:53:18;;;;;;;3.83;1.40;;;14.30;68.90;;;;;;5006824;28;20132;-67
2023/04/12 11:55:53;;;;;;;2.13;1.33;;;14.30;68.60;;;;;;4988752;28;20072;-66
2023/04/12 11:58:22;;;;;;;1.55;0.60;;;14.40;67.90;;;;;;5001180;28;20040;-66
2023/04/12 12:00:49;;;;;;;5.78;1.48;;;14.40;67.80;;;;;;5007021;28;20797;-66
2023/04/12 12:03:15;;;;;;;1.83;1.33;;;14.40;67.40;;;;;;5006319;28;20018;-66
2023/04/12 12:05:41;;;;;;;2.30;1.13;;;14.40;67.70;;;;;;5010322;28;20120;-66
2023/04/12 12:08:08;;;;;;;1.73;1.08;;;14.40;67.20;;;;;;5009069;28;20279;-66
2023/04/12 12:10:38;;;;;;;3.40;1.50;;;14.30;66.80;;;;;;5005397;28;20033;-67
2023/04/12 12:13:11;;;;;;;2.83;1.10;;;14.20;66.70;;;;;;5007085;28;20021;-67
2023/04/12 12:15:37;;;;;;;2.88;1.02;;;14.20;65.30;;;;;;5006653;28;20077;-67
2023/04/12 12:18:06;;;;;;;7.70;1.48;;;14.30;62.60;;;;;;5006161;28;20698;-67
2023/04/12 12:20:32;;;;;;;4.15;1.88;;;14.30;62.60;;;;;;5005743;28;20026;-67
2023/04/12 12:22:58;;;;;;;3.15;0.82;;;14.30;62.00;;;;;;4990745;28;20503;-67
2023/04/12 12:25:24;;;;;;;4.28;0.98;;;14.30;61.90;;;;;;5010688;28;20042;-67
2023/04/12 12:27:56;;;;;;;3.38;1.15;;;14.20;61.10;;;;;;5008374;28;20053;-67
2023/04/12 12:30:22;;;;;;;2.78;1.25;;;14.20;61.20;;;;;;5002836;28;20025;-67
2023/04/12 12:32:51;;;;;;;2.53;0.90;;;14.20;60.30;;;;;;5009971;28;20510;-67
2023/04/12 12:35:18;;;;;;;2.85;0.75;;;14.20;60.40;;;;;;5009883;28;20076;-67
2023/04/12 12:37:57;;;;;;;2.47;0.93;;;14.20;60.40;;;;;;4993117;28;20404;-67
2023/04/12 12:40:33;;;;;;;1.05;0.90;;;14.30;60.30;;;;;;4997085;28;20146;-67
2023/04/12 12:42:59;;;;;;;3.80;1.10;;;14.40;60.60;;;;;;5007033;28;20022;-67
2023/04/12 12:45:26;;;;;;;2.63;0.70;;;14.50;60.60;;;;;;5007743;28;20026;-67
2023/04/12 12:47:53;;;;;;;6.97;1.55;;;14.60;60.50;;;;;;5005097;28;20041;-68
2023/04/12 12:50:23;;;;;;;3.67;1.00;;;14.70;60.10;;;;;;5007981;28;20579;-68